createdAt,value
2022-10-19T00:01:21.994Z,1.00
2022-10-19T00:03:52.125Z,1.20
2022-10-19T00:06:28.280Z,1.40
2022-10-19T00:09:05.867Z,1.20
2022-10-19T00:11:34.797Z,1.30
2022-10-19T00:14:02.659Z,1.15
2022-10-19T00:16:32.876Z,1.40
2022-10-19T00:19:02.362Z,1.38
2022-10-19T00:21:30.166Z,1.30
2022-10-19T00:23:57.533Z,1.40
2022-10-19T00:26:25.699Z,1.42
2022-10-19T00:28:57.125Z,1.23
2022-10-19T00:31:25.093Z,1.40
2022-10-19T00:33:52.960Z,1.15
2022-10-19T00:36:26.827Z,1.40
2022-10-19T00:41:24.299Z,1.23
2022-10-19T00:44:00.664Z,1.38
2022-10-19T00:46:30.947Z,1.40
2022-10-19T00:49:04.881Z,1.60
2022-10-19T00:51:36.761Z,1.20
2022-10-19T00:54:07.322Z,1.40
2022-10-19T00:56:38.566Z,1.30
2022-10-19T00:59:07.173Z,1.52
2022-10-19T01:01:35.258Z,1.40
2022-10-19T01:04:04.081Z,1.25
2022-10-19T01:06:31.701Z,1.15
2022-10-19T01:08:59.043Z,1.27
2022-10-19T01:11:32.823Z,1.20
2022-10-19T01:16:36.117Z,0.82
2022-10-19T01:19:29.718Z,1.30
2022-10-19T01:22:26.800Z,0.93
2022-10-19T01:25:07.502Z,1.23
2022-10-19T01:27:43.910Z,1.40
2022-10-19T01:30:16.698Z,1.40
2022-10-19T01:33:12.428Z,1.48
2022-10-19T01:36:09.443Z,1.10
2022-10-19T01:38:41.450Z,1.30
2022-10-19T01:41:40.630Z,1.70
2022-10-19T01:44:25.911Z,1.48
2022-10-19T01:46:57.943Z,1.33
2022-10-19T01:49:28.169Z,1.30
2022-10-19T01:52:02.715Z,1.80
2022-10-19T01:54:36.090Z,1.50
2022-10-19T01:57:07.217Z,1.60
2022-10-19T01:59:36.729Z,1.80
2022-10-19T02:02:07.526Z,1.60
2022-10-19T02:04:37.027Z,1.67
2022-10-19T02:07:06.376Z,1.70
2022-10-19T02:09:33.944Z,1.70
2022-10-19T02:12:06.686Z,2.17
2022-10-19T02:14:40.364Z,1.70
2022-10-19T02:17:15.000Z,1.95
2022-10-19T02:19:43.029Z,1.77
2022-10-19T02:22:12.020Z,1.80
2022-10-19T02:24:39.609Z,1.88
2022-10-19T02:27:08.855Z,1.40
2022-10-19T02:29:38.389Z,1.80
2022-10-19T02:32:06.597Z,1.90
2022-10-19T02:34:34.329Z,1.50
2022-10-19T02:37:01.859Z,1.50
2022-10-19T02:39:29.790Z,1.50
2022-10-19T02:42:15.610Z,1.92
2022-10-19T02:45:03.233Z,1.70
2022-10-19T02:47:35.875Z,1.40
2022-10-19T02:50:08.290Z,1.60
2022-10-19T02:52:40.588Z,1.20
2022-10-19T02:55:09.120Z,1.40
2022-10-19T02:57:37.366Z,1.08
2022-10-19T03:00:07.585Z,1.20
2022-10-19T03:02:35.764Z,1.10
2022-10-19T03:05:03.993Z,1.00
2022-10-19T03:07:31.662Z,1.17
2022-10-19T03:09:59.159Z,1.05
2022-10-19T03:12:26.609Z,1.08
2022-10-19T03:14:54.064Z,1.00
2022-10-19T03:17:21.624Z,1.42
2022-10-19T03:19:48.975Z,1.10
2022-10-19T03:22:16.344Z,1.00
2022-10-19T03:24:43.851Z,1.20
2022-10-19T03:27:11.359Z,0.80
2022-10-19T03:29:38.870Z,1.00
2022-10-19T03:32:06.988Z,0.80
2022-10-19T03:34:34.353Z,0.80
2022-10-19T03:37:01.814Z,1.00
2022-10-19T03:39:29.315Z,0.95
2022-10-19T03:41:56.663Z,0.80
2022-10-19T03:44:24.009Z,0.80
2022-10-19T03:46:51.430Z,0.60
2022-10-19T03:49:19.115Z,0.80
2022-10-19T03:51:46.479Z,0.68
2022-10-19T03:54:16.425Z,0.82
2022-10-19T03:56:44.470Z,0.70
2022-10-19T03:59:14.988Z,0.90
2022-10-19T04:01:45.195Z,0.60
2022-10-19T04:04:16.294Z,0.70
2022-10-19T04:06:46.153Z,0.80
2022-10-19T04:09:16.935Z,0.80
2022-10-19T04:11:44.421Z,1.00
2022-10-19T04:14:26.642Z,0.80
2022-10-19T04:16:59.654Z,0.60
2022-10-19T04:19:27.073Z,0.60
2022-10-19T04:21:54.479Z,0.70
2022-10-19T04:24:22.222Z,1.20
2022-10-19T04:26:52.231Z,0.82
2022-10-19T04:29:23.737Z,0.80
2022-10-19T04:31:53.967Z,0.70
2022-10-19T04:34:21.316Z,0.80
2022-10-19T04:36:48.824Z,0.73
2022-10-19T04:39:16.367Z,0.70
2022-10-19T04:41:43.752Z,0.63
2022-10-19T04:44:11.243Z,0.75
2022-10-19T04:46:39.062Z,0.77
2022-10-19T04:49:07.094Z,0.82
2022-10-19T04:51:35.362Z,0.90
2022-10-19T04:54:04.314Z,0.90
2022-10-19T04:56:32.718Z,0.88
2022-10-19T04:59:01.158Z,0.60
2022-10-19T05:01:30.948Z,0.90
2022-10-19T05:04:01.291Z,0.80
2022-10-19T05:06:31.015Z,0.70
2022-10-19T05:08:59.128Z,0.90
2022-10-19T05:11:26.906Z,0.90
2022-10-19T05:13:54.312Z,0.88
2022-10-19T05:16:23.602Z,0.70
2022-10-19T05:18:53.631Z,0.77
2022-10-19T05:21:22.056Z,0.80
2022-10-19T05:23:52.518Z,1.10
2022-10-19T05:26:22.061Z,0.90
2022-10-19T05:28:57.016Z,0.80
2022-10-19T05:31:27.768Z,0.63
2022-10-19T05:33:58.879Z,0.80
2022-10-19T05:36:37.581Z,0.80
2022-10-19T05:39:16.870Z,1.05
2022-10-19T05:41:45.569Z,1.00
2022-10-19T05:44:16.584Z,0.73
2022-10-19T05:46:44.480Z,1.10
2022-10-19T05:49:13.390Z,0.85
2022-10-19T05:51:41.331Z,0.80
2022-10-19T05:54:08.818Z,0.70
2022-10-19T05:56:36.283Z,0.60
2022-10-19T05:59:06.622Z,0.70
2022-10-19T06:01:35.211Z,0.80
2022-10-19T06:04:04.548Z,0.80
2022-10-19T06:06:31.977Z,0.60
2022-10-19T06:09:00.241Z,1.00
2022-10-19T06:11:31.732Z,0.63
2022-10-19T06:14:01.083Z,0.60
2022-10-19T06:16:30.502Z,0.90
2022-10-19T06:18:58.925Z,1.00
2022-10-19T06:21:29.146Z,0.70
2022-10-19T06:23:59.335Z,0.70
2022-10-19T06:26:28.014Z,0.98
2022-10-19T06:28:58.166Z,0.70
2022-10-19T06:31:26.378Z,0.90
2022-10-19T06:33:54.873Z,0.80
2022-10-19T06:36:25.612Z,0.88
2022-10-19T06:38:57.013Z,0.60
2022-10-19T06:41:24.357Z,0.70
2022-10-19T06:43:52.945Z,1.52
2022-10-19T06:46:23.585Z,0.70
2022-10-19T06:48:56.467Z,0.70
2022-10-19T06:51:26.297Z,0.60
2022-10-19T06:53:56.654Z,0.73
2022-10-19T06:56:25.946Z,0.80
2022-10-19T06:58:54.555Z,0.88
2022-10-19T07:01:22.755Z,0.80
2022-10-19T07:03:54.284Z,0.70
2022-10-19T07:06:22.483Z,0.70
2022-10-19T07:08:50.144Z,0.80
2022-10-19T07:11:20.672Z,0.70
2022-10-19T07:13:48.560Z,0.70
2022-10-19T07:16:21.150Z,0.80
2022-10-19T07:18:50.966Z,0.70
2022-10-19T07:21:20.167Z,0.60
2022-10-19T07:23:48.310Z,0.70
2022-10-19T07:26:19.665Z,0.77
2022-10-19T07:28:49.268Z,0.88
2022-10-19T07:31:20.448Z,1.02
2022-10-19T07:33:51.752Z,0.80
2022-10-19T07:36:19.219Z,1.00
2022-10-19T07:38:46.654Z,0.90
2022-10-19T07:41:16.638Z,0.88
2022-10-19T07:43:45.764Z,0.73
2022-10-19T07:46:19.393Z,1.23
2022-10-19T07:48:47.058Z,1.10
2022-10-19T07:51:16.080Z,0.88
2022-10-19T07:53:43.789Z,0.75
2022-10-19T07:56:12.559Z,0.77
2022-10-19T07:58:40.764Z,0.70
2022-10-19T08:01:14.210Z,1.10
2022-10-19T08:04:42.773Z,1.20
2022-10-19T08:06:30.325Z,1.20
2022-10-19T08:08:57.768Z,1.10
2022-10-19T08:11:31.207Z,1.27
2022-10-19T08:13:59.544Z,0.80
2022-10-19T08:16:30.006Z,1.20
2022-10-19T08:19:00.930Z,1.08
2022-10-19T08:21:29.766Z,0.95
2022-10-19T08:23:57.720Z,0.80
2022-10-19T08:26:25.982Z,0.80
2022-10-19T08:28:53.410Z,0.60
2022-10-19T08:31:24.343Z,0.63
2022-10-19T08:33:52.433Z,0.90
2022-10-19T08:36:20.466Z,0.70
2022-10-19T08:38:49.112Z,0.70
2022-10-19T08:41:27.548Z,0.60
2022-10-19T08:44:19.505Z,0.85
2022-10-19T08:46:55.571Z,0.90
2022-10-19T08:49:25.994Z,0.90
2022-10-19T08:52:00.053Z,0.82
2022-10-19T08:54:43.780Z,0.90
2022-10-19T08:57:58.814Z,0.70
2022-10-19T09:00:41.165Z,1.00
2022-10-19T09:03:44.020Z,1.08
2022-10-19T09:06:23.939Z,1.05
2022-10-19T09:08:53.772Z,1.10
2022-10-19T09:11:32.667Z,1.15
2022-10-19T09:14:28.403Z,1.10
2022-10-19T09:17:00.895Z,1.00
2022-10-19T09:19:31.980Z,1.65
2022-10-19T09:22:08.082Z,1.10
2022-10-19T09:24:52.090Z,1.20
2022-10-19T09:27:26.004Z,0.80
2022-10-19T09:29:59.176Z,1.00
2022-10-19T09:32:38.841Z,0.90
2022-10-19T09:35:28.198Z,1.40
2022-10-19T09:37:56.749Z,1.02
2022-10-19T09:40:30.865Z,1.00
2022-10-19T09:42:59.692Z,2.40
2022-10-19T09:45:41.315Z,1.10
2022-10-19T09:48:29.403Z,1.70
2022-10-19T09:51:02.821Z,1.15
2022-10-19T09:53:30.793Z,1.92
2022-10-19T09:56:06.857Z,0.90
2022-10-19T09:58:35.245Z,2.72
2022-10-19T10:01:03.953Z,1.25
2022-10-19T10:03:39.561Z,1.60
2022-10-19T10:06:15.649Z,1.63
2022-10-19T10:08:58.283Z,1.75
2022-10-19T10:11:30.675Z,2.92
2022-10-19T10:14:02.272Z,2.00
2022-10-19T10:16:33.308Z,1.40
2022-10-19T10:19:06.753Z,1.75
2022-10-19T10:21:47.426Z,1.38
2022-10-19T10:24:16.623Z,1.30
2022-10-19T10:26:53.650Z,1.30
2022-10-19T10:29:23.894Z,1.00
2022-10-19T10:32:18.318Z,1.00
2022-10-19T10:35:00.749Z,0.98
2022-10-19T10:37:44.079Z,2.10
2022-10-19T10:40:28.920Z,1.10
2022-10-19T10:43:09.444Z,0.95
2022-10-19T10:45:53.258Z,1.00
2022-10-19T10:48:36.425Z,1.10
2022-10-19T10:51:08.850Z,1.52
2022-10-19T10:53:43.576Z,2.80
2022-10-19T10:56:24.916Z,1.13
2022-10-19T10:59:05.399Z,1.55
2022-10-19T11:01:41.972Z,1.00
2022-10-19T11:04:16.292Z,1.80
2022-10-19T11:06:59.879Z,1.40
2022-10-19T11:09:42.928Z,1.70
2022-10-19T11:12:16.500Z,2.13
2022-10-19T11:14:56.844Z,1.52
2022-10-19T11:17:29.957Z,1.52
2022-10-19T11:19:57.607Z,1.60
2022-10-19T11:22:44.133Z,1.40
2022-10-19T11:25:29.955Z,3.20
2022-10-19T11:28:11.288Z,1.50
2022-10-19T11:31:11.847Z,1.77
2022-10-19T11:34:00.495Z,1.92
2022-10-19T11:37:09.630Z,1.48
2022-10-19T11:40:17.723Z,1.40
2022-10-19T11:43:27.001Z,2.13
2022-10-19T11:46:14.131Z,1.33
2022-10-19T11:48:55.011Z,2.92
2022-10-19T11:51:35.897Z,2.65
2022-10-19T11:54:24.281Z,1.30
2022-10-19T11:57:05.519Z,1.83
2022-10-19T11:59:53.224Z,1.30
2022-10-19T12:02:23.606Z,1.20
2022-10-19T12:04:52.768Z,1.35
2022-10-19T12:07:51.242Z,1.33
2022-10-19T12:10:34.153Z,0.95
2022-10-19T12:13:09.852Z,1.25
2022-10-19T12:15:46.211Z,1.05
2022-10-19T12:18:19.488Z,1.60
2022-10-19T12:20:54.688Z,1.20
2022-10-19T12:23:25.479Z,1.40
2022-10-19T12:25:56.678Z,1.80
2022-10-19T12:28:30.127Z,1.40
2022-10-19T12:30:59.558Z,1.50
2022-10-19T12:33:48.321Z,1.70
2022-10-19T12:36:28.223Z,1.30
2022-10-19T12:39:26.662Z,2.10
2022-10-19T12:42:26.457Z,1.48
2022-10-19T12:45:16.152Z,1.00
2022-10-19T12:48:11.252Z,1.65
2022-10-19T12:50:51.765Z,1.30
2022-10-19T12:53:48.001Z,1.15
2022-10-19T12:56:23.203Z,1.38
2022-10-19T12:58:55.520Z,1.40
2022-10-19T13:01:44.552Z,2.38
2022-10-19T13:04:21.906Z,1.60
2022-10-19T13:07:02.875Z,1.60
2022-10-19T13:09:33.295Z,1.60
2022-10-19T13:12:17.869Z,1.23
2022-10-19T13:14:53.971Z,2.00
2022-10-19T13:17:50.875Z,1.73
2022-10-19T13:20:18.352Z,1.20
2022-10-19T13:23:05.623Z,1.58
2022-10-19T13:25:37.627Z,1.45
2022-10-19T13:28:08.112Z,1.20
2022-10-19T13:30:38.742Z,1.30
2022-10-19T13:33:33.084Z,1.65
2022-10-19T13:36:07.979Z,1.40
2022-10-19T13:38:40.165Z,1.50
2022-10-19T13:41:10.786Z,1.50
2022-10-19T13:43:44.303Z,1.50
2022-10-19T13:46:19.256Z,1.50
2022-10-19T13:49:02.496Z,3.17
2022-10-19T13:51:48.625Z,2.00
2022-10-19T13:54:34.323Z,2.45
2022-10-19T13:57:11.223Z,1.73
2022-10-19T13:59:57.079Z,2.13
2022-10-19T14:03:11.572Z,1.80
2022-10-19T14:06:09.209Z,2.30
2022-10-19T14:09:10.959Z,1.80
2022-10-19T14:11:42.107Z,1.70
2022-10-19T14:14:09.422Z,1.60
2022-10-19T14:16:55.972Z,1.90
2022-10-19T14:19:29.705Z,1.50
2022-10-19T14:22:17.311Z,2.30
2022-10-19T14:24:44.679Z,1.83
2022-10-19T14:27:19.294Z,1.55
2022-10-19T14:29:49.347Z,1.70
2022-10-19T14:32:19.479Z,1.80
2022-10-19T14:34:49.166Z,1.85
2022-10-19T14:37:21.236Z,1.48
2022-10-19T14:40:28.114Z,1.75
2022-10-19T14:42:57.766Z,1.77
2022-10-19T14:45:32.733Z,1.95
2022-10-19T14:48:03.021Z,1.75
2022-10-19T14:50:47.230Z,1.80
2022-10-19T14:53:21.953Z,1.75
2022-10-19T14:55:52.500Z,1.80
2022-10-19T14:58:22.627Z,1.80
2022-10-19T15:00:52.357Z,6.07
2022-10-19T15:03:28.866Z,4.60
2022-10-19T15:06:02.833Z,2.58
2022-10-19T15:08:48.828Z,1.80
2022-10-19T15:11:30.079Z,1.63
2022-10-19T15:14:06.525Z,1.42
2022-10-19T15:16:40.043Z,1.92
2022-10-19T15:19:28.025Z,1.40
2022-10-19T15:22:20.321Z,1.45
2022-10-19T15:25:09.126Z,1.30
2022-10-19T15:27:39.205Z,3.67
2022-10-19T15:30:31.732Z,2.38
2022-10-19T15:33:02.032Z,1.48
2022-10-19T15:35:36.626Z,1.08
2022-10-19T15:38:27.347Z,1.52
2022-10-19T15:41:00.281Z,1.48
2022-10-19T15:43:30.621Z,2.07
2022-10-19T15:46:20.404Z,1.48
2022-10-19T15:48:52.347Z,1.85
2022-10-19T15:51:25.682Z,2.72
2022-10-19T15:53:55.524Z,1.85
2022-10-19T15:56:25.181Z,1.95
2022-10-19T15:58:57.039Z,4.70
2022-10-19T16:01:26.954Z,1.52
2022-10-19T16:03:55.027Z,1.33
2022-10-19T16:06:26.156Z,3.85
2022-10-19T16:08:54.421Z,1.60
2022-10-19T16:11:23.453Z,1.90
2022-10-19T16:13:51.439Z,2.05
2022-10-19T16:16:31.211Z,2.72
2022-10-19T16:18:59.549Z,3.10
2022-10-19T16:21:33.522Z,5.72
2022-10-19T16:24:01.189Z,2.92
2022-10-19T16:26:29.546Z,2.40
2022-10-19T16:28:57.455Z,2.92
2022-10-19T16:31:25.207Z,1.80
2022-10-19T16:33:52.656Z,2.47
2022-10-19T16:36:20.677Z,3.42
2022-10-19T16:38:49.357Z,5.00
2022-10-19T16:41:17.205Z,3.00
2022-10-19T16:43:44.724Z,3.10
2022-10-19T16:46:12.155Z,4.82
2022-10-19T16:48:39.598Z,7.63
2022-10-19T16:51:07.126Z,3.28
2022-10-19T16:53:35.602Z,3.33
2022-10-19T16:56:09.198Z,2.45
2022-10-19T16:58:37.502Z,3.17
2022-10-19T17:01:09.651Z,2.28
2022-10-19T17:03:37.660Z,1.60
2022-10-19T17:06:06.763Z,1.30
2022-10-19T17:09:02.725Z,1.70
2022-10-19T17:11:25.626Z,5.18
2022-10-19T17:13:55.913Z,6.93
2022-10-19T17:16:24.855Z,3.28
2022-10-19T17:18:55.560Z,4.72
2022-10-19T17:21:25.559Z,2.00
2022-10-19T17:24:00.047Z,2.20
2022-10-19T17:26:38.398Z,2.17
2022-10-19T17:29:08.861Z,1.90
2022-10-19T17:31:37.680Z,1.38
2022-10-19T17:34:05.927Z,1.40
2022-10-19T17:36:38.459Z,1.27
2022-10-19T17:39:09.816Z,1.40
2022-10-19T17:41:37.850Z,1.52
2022-10-19T17:44:05.775Z,1.75
2022-10-19T17:46:35.587Z,2.00
2022-10-19T17:49:04.081Z,1.63
2022-10-19T17:51:34.752Z,1.70
2022-10-19T17:54:05.639Z,1.65
2022-10-19T17:56:33.698Z,2.17
2022-10-19T17:59:03.283Z,2.15
2022-10-19T18:01:31.793Z,2.97
2022-10-19T18:03:59.543Z,2.90
2022-10-19T18:06:33.534Z,2.85
2022-10-19T18:09:02.414Z,3.55
2022-10-19T18:11:32.522Z,2.85
2022-10-19T18:14:01.406Z,2.60
2022-10-19T18:16:34.698Z,1.88
2022-10-19T18:19:04.174Z,1.40
2022-10-19T18:21:35.462Z,1.40
2022-10-19T18:24:03.747Z,1.00
2022-10-19T18:26:33.993Z,1.27
2022-10-19T18:29:11.205Z,1.30
2022-10-19T18:31:40.254Z,1.50
2022-10-19T18:34:09.237Z,1.38
2022-10-19T18:36:36.607Z,1.27
2022-10-19T18:39:06.072Z,1.45
2022-10-19T18:41:34.204Z,1.10
2022-10-19T18:44:05.783Z,1.30
2022-10-19T18:46:37.577Z,1.48
2022-10-19T18:49:08.456Z,1.52
2022-10-19T18:51:36.407Z,1.65
2022-10-19T18:54:04.432Z,2.05
2022-10-19T18:56:33.644Z,1.10
2022-10-19T18:59:00.959Z,1.13
2022-10-19T19:01:29.410Z,1.08
2022-10-19T19:04:07.230Z,4.50
2022-10-19T19:06:36.452Z,1.05
2022-10-19T19:09:07.721Z,2.03
2022-10-19T19:11:37.657Z,0.90
2022-10-19T19:14:10.816Z,1.10
2022-10-19T19:16:39.674Z,1.30
2022-10-19T19:19:07.919Z,0.70
2022-10-19T19:21:36.806Z,1.55
2022-10-19T19:24:07.048Z,0.90
2022-10-19T19:26:38.905Z,0.70
2022-10-19T19:29:06.290Z,0.82
2022-10-19T19:31:34.072Z,1.17
2022-10-19T19:34:02.497Z,0.90
2022-10-19T19:36:30.068Z,0.90
2022-10-19T19:38:57.803Z,0.73
2022-10-19T19:41:25.712Z,0.85
2022-10-19T19:43:53.105Z,0.77
2022-10-19T19:46:20.703Z,1.35
2022-10-19T19:48:49.046Z,0.90
2022-10-19T19:51:19.271Z,0.80
2022-10-19T19:53:48.055Z,0.80
2022-10-19T19:56:17.277Z,1.00
2022-10-19T19:58:45.638Z,1.00
2022-10-19T20:01:19.116Z,0.90
2022-10-19T20:03:47.838Z,1.10
2022-10-19T20:06:19.659Z,1.00
2022-10-19T20:08:49.566Z,1.00
2022-10-19T20:11:17.907Z,2.38
2022-10-19T20:13:46.010Z,1.30
2022-10-19T20:16:19.071Z,1.20
2022-10-19T20:18:49.225Z,2.03
2022-10-19T20:21:19.001Z,1.55
2022-10-19T20:23:47.710Z,1.40
2022-10-19T20:26:26.046Z,3.08
2022-10-19T20:28:53.894Z,1.15
2022-10-19T20:31:21.829Z,1.00
2022-10-19T20:33:49.939Z,1.20
2022-10-19T20:36:18.975Z,0.90
2022-10-19T20:38:51.867Z,1.00
2022-10-19T20:41:25.336Z,0.95
2022-10-19T20:43:54.054Z,0.88
2022-10-19T20:46:24.066Z,1.02
2022-10-19T20:48:52.523Z,1.10
2022-10-19T20:51:20.851Z,1.08
2022-10-19T20:53:50.714Z,1.00
2022-10-19T20:56:23.257Z,0.98
2022-10-19T20:58:56.784Z,1.20
2022-10-19T21:01:25.009Z,1.20
2022-10-19T21:03:55.129Z,1.13
2022-10-19T21:06:25.364Z,1.17
2022-10-19T21:08:53.419Z,1.23
2022-10-19T21:11:23.903Z,1.13
2022-10-19T21:14:15.640Z,1.27
2022-10-19T21:16:43.666Z,1.00
2022-10-19T21:19:17.572Z,0.98
2022-10-19T21:21:50.382Z,1.20
2022-10-19T21:24:20.961Z,1.42
2022-10-19T21:26:48.846Z,1.10
2022-10-19T21:29:17.319Z,1.38
2022-10-19T21:31:48.932Z,1.13
2022-10-19T21:34:19.663Z,1.13
2022-10-19T21:36:47.128Z,1.05
2022-10-19T21:39:17.466Z,1.10
2022-10-19T21:41:45.195Z,1.10
2022-10-19T21:44:13.574Z,1.10
2022-10-19T21:46:43.231Z,1.10
2022-10-19T21:49:12.400Z,1.20
2022-10-19T21:51:45.693Z,1.10
2022-10-19T21:54:16.124Z,1.15
2022-10-19T21:56:44.948Z,1.10
2022-10-19T21:59:12.918Z,1.00
2022-10-19T22:01:41.868Z,1.00
2022-10-19T22:04:16.246Z,0.90
2022-10-19T22:06:44.281Z,0.90
2022-10-19T22:09:15.463Z,0.73
2022-10-19T22:11:43.395Z,0.98
2022-10-19T22:14:12.993Z,0.80
2022-10-19T22:16:41.605Z,1.27
2022-10-19T22:19:10.283Z,1.23
2022-10-19T22:24:08.482Z,1.35
2022-10-19T22:26:39.774Z,1.50
2022-10-19T22:29:08.054Z,1.30
2022-10-19T22:31:37.197Z,1.45
2022-10-19T22:34:07.646Z,1.40
2022-10-19T22:36:35.712Z,1.40
2022-10-19T22:39:04.020Z,1.00
2022-10-19T22:41:31.424Z,1.33
2022-10-19T22:43:58.940Z,1.20
2022-10-19T22:46:26.395Z,1.00
2022-10-19T22:48:53.687Z,0.90
2022-10-19T22:51:51.626Z,0.88
2022-10-19T22:54:22.248Z,1.10
2022-10-19T22:56:49.790Z,1.20
2022-10-19T22:59:17.098Z,1.23
2022-10-19T23:01:44.474Z,1.00
2022-10-19T23:04:11.979Z,0.88
2022-10-19T23:06:39.390Z,1.08
2022-10-19T23:09:07.113Z,0.88
2022-10-19T23:11:34.443Z,0.90
2022-10-19T23:14:01.843Z,1.00
2022-10-19T23:16:29.427Z,0.90
2022-10-19T23:18:56.922Z,0.90
2022-10-19T23:21:40.601Z,0.80
2022-10-19T23:24:09.202Z,0.88
2022-10-19T23:26:37.023Z,0.73
2022-10-19T23:29:04.350Z,0.65
2022-10-19T23:31:33.115Z,0.90
2022-10-19T23:34:00.538Z,0.90
2022-10-19T23:36:29.251Z,0.75
2022-10-19T23:38:58.218Z,0.80
2022-10-19T23:41:25.870Z,0.70
2022-10-19T23:43:53.362Z,0.85
2022-10-19T23:46:21.008Z,0.73
2022-10-19T23:48:48.506Z,0.80
2022-10-19T23:51:18.970Z,0.80
2022-10-19T23:53:48.355Z,0.82
2022-10-19T23:56:27.998Z,0.75
2022-10-19T23:58:56.637Z,0.93
